createdAt,value
2022-12-25T00:01:20.218Z,67772.63
2022-12-25T00:03:48.293Z,67748.06
2022-12-25T00:06:15.678Z,67775.63
2022-12-25T00:08:43.014Z,67784.88
2022-12-25T00:11:16.447Z,67782.59
2022-12-25T00:13:44.095Z,67798.56
2022-12-25T00:16:17.281Z,67789.00
2022-12-25T00:18:44.903Z,67787.13
2022-12-25T00:21:12.299Z,67800.09
2022-12-25T00:23:39.663Z,67814.00
2022-12-25T00:26:09.298Z,67822.13
2022-12-25T00:28:36.673Z,67840.00
2022-12-25T00:31:09.231Z,67837.94
2022-12-25T00:33:38.156Z,67832.50
2022-12-25T00:36:06.576Z,67832.66
2022-12-25T00:38:35.978Z,67830.19
2022-12-25T00:41:11.574Z,67797.19
2022-12-25T00:43:38.838Z,67817.63
2022-12-25T00:46:07.066Z,67814.22
2022-12-25T00:48:35.611Z,67797.84
2022-12-25T00:51:05.903Z,67792.00
2022-12-25T00:53:33.312Z,67785.78
2022-12-25T00:56:03.262Z,67771.31
2022-12-25T00:58:32.816Z,67761.31
2022-12-25T01:01:00.371Z,67751.91
2022-12-25T01:03:27.829Z,67749.66
2022-12-25T01:06:00.767Z,67732.16
2022-12-25T01:08:30.491Z,67724.28
2022-12-25T01:11:03.883Z,67710.00
2022-12-25T01:13:31.971Z,67704.53
2022-12-25T01:15:59.374Z,67713.53
2022-12-25T01:18:27.408Z,67699.44
2022-12-25T01:20:54.493Z,67692.31
2022-12-25T01:23:21.701Z,67696.63
2022-12-25T01:25:48.848Z,67694.00
2022-12-25T01:28:16.240Z,67692.50
2022-12-25T01:30:49.942Z,67696.81
2022-12-25T01:33:17.105Z,67691.94
2022-12-25T01:35:44.287Z,67697.34
2022-12-25T01:38:11.475Z,67665.13
2022-12-25T01:40:39.273Z,67680.81
2022-12-25T01:43:35.888Z,67678.78
2022-12-25T01:46:03.953Z,67649.34
2022-12-25T01:48:36.940Z,67680.25
2022-12-25T01:51:09.450Z,67684.22
2022-12-25T01:53:37.189Z,67680.47
2022-12-25T01:56:08.720Z,67678.78
2022-12-25T01:58:36.586Z,67672.38
2022-12-25T02:01:06.700Z,67671.59
2022-12-25T02:03:34.333Z,67663.91
2022-12-25T02:06:04.214Z,67655.44
2022-12-25T02:08:31.872Z,67653.38
2022-12-25T02:10:59.642Z,67659.19
2022-12-25T02:13:26.786Z,67662.97
2022-12-25T02:16:25.320Z,67663.91
2022-12-25T02:18:56.632Z,67662.78
2022-12-25T02:21:54.781Z,67661.66
2022-12-25T02:24:56.508Z,67660.31
2022-12-25T02:28:01.504Z,67647.19
2022-12-25T02:30:35.288Z,67641.34
2022-12-25T02:33:28.600Z,67633.47
2022-12-25T02:35:57.406Z,67626.69
2022-12-25T02:38:37.658Z,67627.25
2022-12-25T02:41:15.592Z,67625.56
2022-12-25T02:44:04.876Z,67617.88
2022-12-25T02:46:51.907Z,67627.81
2022-12-25T02:49:41.810Z,67634.22
2022-12-25T02:52:39.482Z,67643.59
2022-12-25T02:55:29.918Z,67655.25
2022-12-25T02:58:21.040Z,67659.94
2022-12-25T03:01:13.373Z,67663.19
2022-12-25T03:04:00.644Z,67674.06
2022-12-25T03:06:46.048Z,67669.34
2022-12-25T03:09:41.629Z,67651.31
2022-12-25T03:12:51.674Z,67637.41
2022-12-25T03:15:43.709Z,67640.97
2022-12-25T03:18:28.680Z,67646.78
2022-12-25T03:21:23.774Z,67640.22
2022-12-25T03:24:16.481Z,67642.69
2022-12-25T03:26:57.009Z,67631.97
2022-12-25T03:29:52.256Z,67630.06
2022-12-25T03:32:45.241Z,67624.28
2022-12-25T03:35:23.456Z,67625.75
2022-12-25T03:38:40.355Z,67620.34
2022-12-25T03:41:44.610Z,67628.38
2022-12-25T03:44:45.779Z,67625.41
2022-12-25T03:47:35.753Z,67632.31
2022-12-25T03:51:04.449Z,67638.31
2022-12-25T03:53:54.284Z,67631.97
2022-12-25T03:56:40.921Z,67616.16
2022-12-25T03:59:26.385Z,67608.06
2022-12-25T04:02:11.813Z,67609.00
2022-12-25T04:04:57.720Z,67611.66
2022-12-25T04:07:43.594Z,67616.16
2022-12-25T04:10:29.643Z,67610.34
2022-12-25T04:13:15.280Z,67619.34
2022-12-25T04:16:00.891Z,67608.06
2022-12-25T04:18:46.441Z,67604.13
2022-12-25T04:21:32.305Z,67604.69
2022-12-25T04:24:18.236Z,67591.72
2022-12-25T04:27:03.866Z,67597.00
2022-12-25T04:29:49.555Z,67621.97
2022-12-25T04:32:35.157Z,67616.38
2022-12-25T04:35:20.720Z,67604.69
2022-12-25T04:37:47.729Z,67601.88
2022-12-25T04:40:14.931Z,67598.13
2022-12-25T04:42:41.986Z,67607.31
2022-12-25T04:45:09.844Z,67583.47
2022-12-25T04:47:36.833Z,67581.78
2022-12-25T04:50:04.354Z,67588.91
2022-12-25T04:52:37.230Z,67582.72
2022-12-25T04:55:06.060Z,67584.97
2022-12-25T04:57:33.825Z,67584.41
2022-12-25T05:00:00.911Z,67575.94
2022-12-25T05:02:28.042Z,67568.25
2022-12-25T05:04:55.295Z,67567.13
2022-12-25T05:07:22.434Z,67564.69
2022-12-25T05:09:49.575Z,67564.13
2022-12-25T05:12:16.768Z,67569.00
2022-12-25T05:14:44.132Z,67571.25
2022-12-25T05:17:11.138Z,67564.69
2022-12-25T05:19:38.219Z,67568.06
2022-12-25T05:22:05.324Z,67570.88
2022-12-25T05:24:32.391Z,67567.69
2022-12-25T05:26:59.429Z,67547.88
2022-12-25T05:29:26.632Z,67563.75
2022-12-25T05:31:53.690Z,67561.84
2022-12-25T05:34:20.809Z,67554.88
2022-12-25T05:36:47.845Z,67538.75
2022-12-25T05:39:14.904Z,67529.16
2022-12-25T05:41:42.510Z,67510.59
2022-12-25T05:44:09.651Z,67503.66
2022-12-25T05:46:36.735Z,67508.34
2022-12-25T05:49:05.618Z,67522.78
2022-12-25T05:51:32.884Z,67509.81
2022-12-25T05:54:00.109Z,67504.75
2022-12-25T05:56:27.139Z,67502.91
2022-12-25T05:58:54.390Z,67497.06
2022-12-25T06:01:24.386Z,67493.13
2022-12-25T06:03:51.748Z,67490.28
2022-12-25T06:06:19.056Z,67504.75
2022-12-25T06:08:46.657Z,67502.69
2022-12-25T06:11:15.602Z,67503.44
2022-12-25T06:13:42.860Z,67507.97
2022-12-25T06:16:11.597Z,67517.91
2022-12-25T06:18:41.146Z,67528.06
2022-12-25T06:21:10.056Z,67531.44
2022-12-25T06:23:38.393Z,67522.78
2022-12-25T06:26:07.897Z,67510.00
2022-12-25T06:28:35.556Z,67504.94
2022-12-25T06:31:10.053Z,67499.50
2022-12-25T06:33:37.454Z,67505.88
2022-12-25T06:36:08.874Z,67507.75
2022-12-25T06:38:36.505Z,67518.06
2022-12-25T06:41:05.605Z,67520.53
2022-12-25T06:43:32.733Z,67506.06
2022-12-25T06:46:05.606Z,67505.72
2022-12-25T06:48:37.187Z,67492.22
2022-12-25T06:51:05.903Z,67476.22
2022-12-25T06:53:39.858Z,67454.81
2022-12-25T06:56:16.021Z,67453.63
2022-12-25T06:58:48.586Z,67431.16
2022-12-25T07:01:28.325Z,67427.81
2022-12-25T07:03:59.766Z,67423.66
2022-12-25T07:06:27.241Z,67410.91
2022-12-25T07:08:54.406Z,67415.63
2022-12-25T07:11:22.042Z,67421.41
2022-12-25T07:13:49.229Z,67405.47
2022-12-25T07:16:16.963Z,67416.53
2022-12-25T07:18:44.311Z,67421.41
2022-12-25T07:21:17.468Z,67425.19
2022-12-25T07:23:45.943Z,67424.97
2022-12-25T07:26:13.640Z,67420.88
2022-12-25T07:28:41.245Z,67426.13
2022-12-25T07:31:14.862Z,67410.13
2022-12-25T07:33:42.588Z,67391.97
2022-12-25T07:36:12.801Z,67396.25
2022-12-25T07:38:43.873Z,67385.78
2022-12-25T07:41:13.183Z,67389.16
2022-12-25T07:43:40.438Z,67406.41
2022-12-25T07:46:08.291Z,67401.53
2022-12-25T07:48:35.856Z,67410.34
2022-12-25T07:51:10.078Z,67422.00
2022-12-25T07:53:38.065Z,67433.44
2022-12-25T07:56:32.553Z,67450.13
2022-12-25T07:59:22.335Z,67444.69
2022-12-25T08:05:15.443Z,67454.25
2022-12-25T08:07:42.850Z,67462.34
2022-12-25T08:10:10.428Z,67476.78
2022-12-25T08:12:45.107Z,67489.19
2022-12-25T08:15:12.328Z,67456.16
2022-12-25T08:17:39.786Z,67458.19
2022-12-25T08:20:07.531Z,67463.81
2022-12-25T08:22:40.574Z,67454.25
2022-12-25T08:25:08.815Z,67458.56
2022-12-25T08:27:41.829Z,67447.13
2022-12-25T08:30:09.420Z,67450.88
2022-12-25T08:32:39.536Z,67455.38
2022-12-25T08:35:07.288Z,67478.28
2022-12-25T08:37:36.435Z,67486.16
2022-12-25T08:40:04.485Z,67475.09
2022-12-25T08:42:33.444Z,67481.44
2022-12-25T08:45:01.606Z,67470.59
2022-12-25T08:47:28.795Z,67462.91
2022-12-25T08:49:55.914Z,67462.16
2022-12-25T08:52:23.057Z,67476.78
2022-12-25T08:54:50.162Z,67475.31
2022-12-25T08:57:17.238Z,67495.16
2022-12-25T08:59:44.353Z,67508.91
2022-12-25T09:02:12.837Z,67536.50
2022-12-25T09:04:40.074Z,67548.31
2022-12-25T09:07:07.173Z,67583.28
2022-12-25T09:09:34.279Z,67620.28
2022-12-25T09:12:01.418Z,67622.75
2022-12-25T09:14:28.844Z,67604.91
2022-12-25T09:16:55.939Z,67600.75
2022-12-25T09:19:23.098Z,67606.59
2022-12-25T09:21:50.229Z,67619.16
2022-12-25T09:24:17.417Z,67628.19
2022-12-25T09:26:44.535Z,67592.69
2022-12-25T09:29:11.639Z,67586.47
2022-12-25T09:31:39.907Z,67598.09
2022-12-25T09:34:07.073Z,67629.50
2022-12-25T09:36:34.151Z,67611.09
2022-12-25T09:39:01.720Z,67650.16
2022-12-25T09:41:46.675Z,67689.28
2022-12-25T09:44:19.577Z,67720.69
2022-12-25T09:47:24.557Z,67723.13
2022-12-25T09:49:57.908Z,67758.88
2022-12-25T09:52:55.114Z,67715.78
2022-12-25T09:55:24.796Z,67709.41
2022-12-25T09:57:55.614Z,67710.72
2022-12-25T10:00:34.688Z,67711.84
2022-12-25T10:03:24.746Z,67694.00
2022-12-25T10:06:18.006Z,67687.03
2022-12-25T10:09:12.977Z,67687.22
2022-12-25T10:11:55.739Z,67694.75
2022-12-25T10:14:34.532Z,67697.28
2022-12-25T10:17:45.323Z,67738.38
2022-12-25T10:20:35.607Z,67741.41
2022-12-25T10:23:06.281Z,67739.31
2022-12-25T10:25:33.680Z,67751.91
2022-12-25T10:28:05.475Z,67744.03
2022-12-25T10:30:32.640Z,67741.75
2022-12-25T10:33:00.402Z,67737.03
2022-12-25T10:35:29.988Z,67705.84
2022-12-25T10:38:03.038Z,67697.19
2022-12-25T10:40:53.395Z,67706.06
2022-12-25T10:43:31.430Z,67754.53
2022-12-25T10:45:59.261Z,67768.50
2022-12-25T10:48:27.759Z,67762.28
2022-12-25T10:50:55.968Z,67734.28
2022-12-25T10:53:26.749Z,67733.09
2022-12-25T10:56:02.867Z,67730.47
2022-12-25T10:58:31.026Z,67738.19
2022-12-25T11:01:04.896Z,67791.22
2022-12-25T11:03:54.007Z,67834.91
2022-12-25T11:06:24.437Z,67885.41
2022-12-25T11:08:55.609Z,67895.56
2022-12-25T11:11:23.569Z,67902.94
2022-12-25T11:13:52.603Z,67917.97
2022-12-25T11:16:28.954Z,67955.84
2022-12-25T11:18:57.409Z,67924.19
2022-12-25T11:21:34.373Z,67890.38
2022-12-25T11:24:04.723Z,67921.75
2022-12-25T11:26:45.814Z,67911.38
2022-12-25T11:29:35.238Z,67908.94
2022-12-25T11:32:05.768Z,67889.94
2022-12-25T11:34:53.095Z,67878.44
2022-12-25T11:37:44.248Z,67876.19
2022-12-25T11:40:17.546Z,67873.91
2022-12-25T11:42:50.216Z,67878.06
2022-12-25T11:45:38.520Z,67879.56
2022-12-25T11:48:14.540Z,67886.91
2022-12-25T11:50:49.686Z,67886.91
2022-12-25T11:53:22.488Z,67892.56
2022-12-25T11:55:54.942Z,67893.50
2022-12-25T11:58:30.726Z,67907.03
2022-12-25T12:01:02.106Z,67904.81
2022-12-25T12:03:33.734Z,67903.47
2022-12-25T12:06:15.057Z,67907.25
2022-12-25T12:08:43.507Z,67905.94
2022-12-25T12:11:28.577Z,67916.84
2022-12-25T12:14:13.030Z,67917.25
2022-12-25T12:16:40.330Z,67933.41
2022-12-25T12:19:31.442Z,67928.72
2022-12-25T12:22:01.401Z,67931.53
2022-12-25T12:24:36.209Z,67940.41
2022-12-25T12:27:25.283Z,67951.13
2022-12-25T12:29:57.042Z,67956.97
2022-12-25T12:32:35.715Z,67968.09
2022-12-25T12:35:09.256Z,67967.72
2022-12-25T12:37:39.478Z,67972.44
2022-12-25T12:40:21.627Z,67985.81
2022-12-25T12:42:50.668Z,67987.50
2022-12-25T12:45:18.181Z,67992.78
2022-12-25T12:47:48.140Z,67993.38
2022-12-25T12:50:33.937Z,67977.38
2022-12-25T12:53:35.453Z,67996.75
2022-12-25T12:56:13.886Z,67998.44
2022-12-25T12:58:48.514Z,67997.88
2022-12-25T13:01:27.383Z,67997.69
2022-12-25T13:04:28.234Z,67995.06
2022-12-25T13:07:17.307Z,67993.75
2022-12-25T13:09:53.302Z,67983.75
2022-12-25T13:12:22.351Z,67980.72
2022-12-25T13:14:50.307Z,67969.59
2022-12-25T13:17:21.931Z,67967.56
2022-12-25T13:19:55.210Z,67969.59
2022-12-25T13:22:25.431Z,67975.06
2022-12-25T13:24:58.946Z,67977.34
2022-12-25T13:27:29.714Z,67969.97
2022-12-25T13:29:58.598Z,67968.13
2022-12-25T13:32:31.027Z,67967.16
2022-12-25T13:35:00.369Z,67965.47
2022-12-25T13:37:31.943Z,67959.03
2022-12-25T13:40:03.252Z,67953.97
2022-12-25T13:42:33.226Z,67945.09
2022-12-25T13:45:03.445Z,67938.53
2022-12-25T13:47:38.792Z,67935.50
2022-12-25T13:50:48.452Z,67928.72
2022-12-25T13:53:17.475Z,67924.19
2022-12-25T13:55:50.782Z,67914.78
2022-12-25T13:58:33.998Z,67913.47
2022-12-25T14:01:02.949Z,67911.75
2022-12-25T14:03:40.744Z,67905.19
2022-12-25T14:06:29.647Z,67902.94
2022-12-25T14:08:58.549Z,67902.16
2022-12-25T14:11:28.728Z,67906.13
2022-12-25T14:14:03.497Z,67898.19
2022-12-25T14:16:30.825Z,67900.84
2022-12-25T14:19:01.787Z,67871.16
2022-12-25T14:21:41.055Z,67893.47
2022-12-25T14:24:16.335Z,67887.47
2022-12-25T14:26:44.053Z,67886.34
2022-12-25T14:29:18.109Z,67879.38
2022-12-25T14:31:47.433Z,67887.28
2022-12-25T14:34:23.947Z,67879.75
2022-12-25T14:36:53.213Z,67879.38
2022-12-25T14:39:36.317Z,67874.47
2022-12-25T14:42:18.093Z,67869.38
2022-12-25T14:44:57.210Z,67868.06
2022-12-25T14:47:24.908Z,67866.56
2022-12-25T14:49:53.828Z,67869.94
2022-12-25T14:52:31.350Z,67884.47
2022-12-25T14:55:19.382Z,67882.94
2022-12-25T14:57:53.726Z,67892.56
2022-12-25T15:00:32.147Z,67885.19
2022-12-25T15:03:01.345Z,67885.41
2022-12-25T15:05:33.598Z,67885.97
2022-12-25T15:08:07.028Z,67884.84
2022-12-25T15:13:24.763Z,67884.28
2022-12-25T15:15:55.522Z,67886.53
2022-12-25T15:18:24.891Z,67886.75
2022-12-25T15:20:53.019Z,67898.00
2022-12-25T15:23:21.438Z,67894.63
2022-12-25T15:25:53.747Z,67893.09
2022-12-25T15:28:21.398Z,67892.19
2022-12-25T15:30:50.021Z,67892.19
2022-12-25T15:33:18.651Z,67895.75
2022-12-25T15:35:45.944Z,67892.56
2022-12-25T15:38:13.645Z,67897.66
2022-12-25T15:40:42.485Z,67893.88
2022-12-25T15:43:38.704Z,67896.50
2022-12-25T15:46:01.250Z,67898.19
2022-12-25T15:48:28.401Z,67904.41
2022-12-25T15:50:55.454Z,67880.19
2022-12-25T15:53:42.567Z,67914.22
2022-12-25T15:56:14.479Z,67905.19
2022-12-25T15:58:44.389Z,67908.00
2022-12-25T16:01:15.525Z,67914.03
2022-12-25T16:03:46.691Z,67914.03
2022-12-25T16:06:16.894Z,67909.13
2022-12-25T16:08:49.491Z,67908.00
2022-12-25T16:11:23.633Z,67905.19
2022-12-25T16:13:51.012Z,67907.44
2022-12-25T16:16:18.457Z,67912.13
2022-12-25T16:18:47.543Z,67908.38
2022-12-25T16:21:17.825Z,67913.25
2022-12-25T16:23:45.355Z,67915.72
2022-12-25T16:26:12.468Z,67923.06
2022-12-25T16:28:39.570Z,67922.84
2022-12-25T16:31:14.521Z,67920.44
2022-12-25T16:33:42.140Z,67922.50
2022-12-25T16:36:11.197Z,67924.56
2022-12-25T16:38:39.317Z,67925.16
2022-12-25T16:41:06.616Z,67923.84
2022-12-25T16:43:33.709Z,67929.09
2022-12-25T16:46:00.891Z,67930.97
2022-12-25T16:48:29.137Z,67905.63
2022-12-25T16:51:04.584Z,67932.69
2022-12-25T16:53:31.693Z,67927.03
2022-12-25T16:56:12.040Z,67919.66
2022-12-25T16:58:44.309Z,67899.97
2022-12-25T17:01:15.470Z,67912.53
2022-12-25T17:03:52.259Z,67913.47
2022-12-25T17:06:34.220Z,67906.66
2022-12-25T17:09:08.224Z,67902.00
2022-12-25T17:11:38.304Z,67904.03
2022-12-25T17:14:13.582Z,67903.47
2022-12-25T17:16:40.875Z,67905.00
2022-12-25T17:19:19.976Z,67898.97
2022-12-25T17:21:47.898Z,67901.22
2022-12-25T17:24:15.711Z,67900.09
2022-12-25T17:26:44.671Z,67906.13
2022-12-25T17:29:14.759Z,67888.66
2022-12-25T17:31:52.492Z,67915.72
2022-12-25T17:34:20.148Z,67917.41
2022-12-25T17:36:55.451Z,67921.94
2022-12-25T17:39:24.329Z,67924.41
2022-12-25T17:41:54.519Z,67907.31
2022-12-25T17:44:22.119Z,67936.63
2022-12-25T17:46:50.694Z,67943.22
2022-12-25T17:49:23.501Z,67936.47
2022-12-25T17:51:59.901Z,67946.03
2022-12-25T17:54:32.723Z,67949.06
2022-12-25T17:57:04.822Z,67948.72
2022-12-25T17:59:39.553Z,67954.16
2022-12-25T18:02:15.604Z,67956.03
2022-12-25T18:04:50.816Z,67957.56
2022-12-25T18:07:20.650Z,67960.56
2022-12-25T18:09:47.960Z,67964.91
2022-12-25T18:12:15.133Z,67964.53
2022-12-25T18:14:42.283Z,67964.31
2022-12-25T18:17:09.561Z,67970.56
2022-12-25T18:19:36.733Z,67964.53
2022-12-25T18:22:06.221Z,67966.59
2022-12-25T18:24:37.411Z,67974.88
2022-12-25T18:27:04.660Z,67971.31
2022-12-25T18:29:36.157Z,67981.09
2022-12-25T18:32:03.303Z,67975.63
2022-12-25T18:34:37.744Z,67977.34
2022-12-25T18:37:05.664Z,67981.28
2022-12-25T18:39:36.950Z,67979.59
2022-12-25T18:42:26.091Z,67980.72
2022-12-25T18:44:59.120Z,67982.06
2022-12-25T18:47:27.467Z,67992.38
2022-12-25T18:49:54.590Z,67989.75
2022-12-25T18:52:50.130Z,67999.38
2022-12-25T18:55:09.724Z,68007.66
2022-12-25T18:57:37.791Z,68002.22
2022-12-25T19:00:12.944Z,68006.94
2022-12-25T19:02:40.283Z,68004.69
2022-12-25T19:05:07.753Z,67980.78
2022-12-25T19:07:35.818Z,68000.50
2022-12-25T19:10:12.333Z,67998.81
2022-12-25T19:12:45.008Z,67995.81
2022-12-25T19:15:13.307Z,68002.22
2022-12-25T19:17:40.615Z,68002.00
2022-12-25T19:20:11.624Z,68007.88
2022-12-25T19:22:38.713Z,68005.03
2022-12-25T19:25:06.829Z,68002.03
2022-12-25T19:27:34.098Z,68029.72
2022-12-25T19:30:01.436Z,68031.06
2022-12-25T19:32:31.083Z,68037.81
2022-12-25T19:35:07.323Z,68038.59
2022-12-25T19:37:38.100Z,68033.16
2022-12-25T19:40:08.949Z,68013.00
2022-12-25T19:42:36.063Z,68047.66
2022-12-25T19:45:04.947Z,68057.66
2022-12-25T19:47:34.330Z,68061.22
2022-12-25T19:50:03.365Z,68066.13
2022-12-25T19:52:32.428Z,68073.88
2022-12-25T19:55:02.319Z,68098.00
2022-12-25T19:57:35.323Z,68105.75
2022-12-25T20:00:06.340Z,68108.38
2022-12-25T20:02:53.121Z,68117.44
2022-12-25T20:05:28.039Z,68128.38
2022-12-25T20:08:02.057Z,68126.88
2022-12-25T20:10:29.346Z,68130.09
2022-12-25T20:12:58.184Z,68125.19
2022-12-25T20:15:26.442Z,68132.94
2022-12-25T20:17:56.351Z,68133.66
2022-12-25T20:20:46.161Z,68143.09
2022-12-25T20:23:16.714Z,68151.03
2022-12-25T20:25:43.896Z,68146.69
2022-12-25T20:28:14.180Z,68153.69
2022-12-25T20:30:42.037Z,68160.09
2022-12-25T20:33:18.128Z,68164.06
2022-12-25T20:35:49.476Z,68174.25
2022-12-25T20:38:20.293Z,68152.75
2022-12-25T20:41:24.965Z,68178.19
2022-12-25T20:43:41.580Z,68186.50
2022-12-25T20:46:15.326Z,68182.72
2022-12-25T20:48:42.771Z,68169.53
2022-12-25T20:51:20.411Z,68177.81
2022-12-25T20:53:52.301Z,68174.81
2022-12-25T20:56:21.972Z,68171.97
2022-12-25T20:58:59.003Z,68170.28
2022-12-25T21:01:27.621Z,68168.41
2022-12-25T21:03:55.526Z,68180.84
2022-12-25T21:06:23.021Z,68194.25
2022-12-25T21:08:53.619Z,68194.44
2022-12-25T21:11:24.464Z,68198.59
2022-12-25T21:13:52.210Z,68196.69
2022-12-25T21:16:22.240Z,68203.13
2022-12-25T21:18:53.732Z,68198.41
2022-12-25T21:21:21.989Z,68199.16
2022-12-25T21:23:49.549Z,68170.28
2022-12-25T21:26:22.983Z,68189.16
2022-12-25T21:28:53.636Z,68190.09
2022-12-25T21:31:21.721Z,68180.66
2022-12-25T21:33:53.671Z,68152.75
2022-12-25T21:36:31.961Z,68173.69
2022-12-25T21:39:02.180Z,68168.78
2022-12-25T21:41:31.453Z,68143.69
2022-12-25T21:43:59.877Z,68159.16
2022-12-25T21:46:31.354Z,68163.84
2022-12-25T21:48:59.167Z,68156.13
2022-12-25T21:51:48.094Z,68155.00
2022-12-25T21:54:16.053Z,68146.13
2022-12-25T21:56:45.393Z,68155.56
2022-12-25T21:59:18.316Z,68149.31
2022-12-25T22:01:46.640Z,68134.25
2022-12-25T22:04:15.831Z,68128.59
2022-12-25T22:07:02.330Z,68127.63
2022-12-25T22:09:29.854Z,68117.41
2022-12-25T22:12:17.083Z,68105.53
2022-12-25T22:14:54.728Z,68082.00
2022-12-25T22:17:49.756Z,68098.00
2022-12-25T22:20:18.778Z,68093.09
2022-12-25T22:22:47.638Z,68092.91
2022-12-25T22:25:15.180Z,68095.34
2022-12-25T22:27:44.245Z,68091.41
2022-12-25T22:30:14.846Z,68099.69
2022-12-25T22:32:44.865Z,68108.00
2022-12-25T22:35:13.138Z,68110.66
2022-12-25T22:37:45.215Z,68123.47
2022-12-25T22:40:15.412Z,68129.53
2022-12-25T22:42:42.644Z,68131.41
2022-12-25T22:45:10.647Z,68137.44
2022-12-25T22:47:37.698Z,68147.06
2022-12-25T22:50:05.172Z,68136.50
2022-12-25T22:52:32.434Z,68126.72
2022-12-25T22:54:59.864Z,68166.31
2022-12-25T22:57:27.703Z,68175.00
2022-12-25T22:59:55.289Z,68155.59
2022-12-25T23:02:22.926Z,68182.38
2022-12-25T23:04:50.204Z,68183.09
2022-12-25T23:07:17.592Z,68180.09
2022-12-25T23:09:44.893Z,68162.38
2022-12-25T23:12:32.136Z,68195.38
2022-12-25T23:14:59.414Z,68188.97
2022-12-25T23:17:44.952Z,68202.75
2022-12-25T23:20:33.288Z,68207.25
2022-12-25T23:23:21.178Z,68198.41
2022-12-25T23:26:06.746Z,68190.66
2022-12-25T23:28:56.829Z,68190.09
2022-12-25T23:31:30.594Z,68202.94
2022-12-25T23:33:58.774Z,68208.03
2022-12-25T23:36:25.955Z,68198.59
2022-12-25T23:38:53.150Z,68198.78
2022-12-25T23:41:21.494Z,68203.88
2022-12-25T23:43:48.907Z,68215.56
2022-12-25T23:46:16.695Z,68196.91
2022-12-25T23:48:43.895Z,68223.50
2022-12-25T23:51:11.070Z,68216.16
2022-12-25T23:53:38.182Z,68194.66
2022-12-25T23:56:05.698Z,68235.41
2022-12-25T23:58:34.092Z,68241.25
